Cape Girardeau, MO

3:41 AM CDT on July 13, 2014 (GMT -0500)
Southern Illinois (KMDH) Elev 410 ft | 37.78 °N, 89.25 °W | Change Station
Active Advisory: Flood Warning

Current weather conditions updated 49 minutes ago

Clear
Clear
80 °F
Feels Like 84 °F
N
10
Wind Variable Wind from SW

Today is forecast to be Warmer than yesterday. Thunderstorms tonight.

Today
High -- | Low -- °F
--% Chance of Precip.
Yesterday
High -- | Low -- °F
Precip. -- in
5:48 AM 8:19 PM
Full, 99% visible
Pressure 29.98 in
Visibility 10.0 miles
Clouds Clear
Heat Index 84 °F
Dew Point 71 °F
Humidity 74%
Rainfall 0.00 in
Snow Depth Not available.
UV 0 out of 12
Pollen 3.70 out of 12
Air Quality Not available.
Flu Activity Sporadic
METAR KMDH 130752Z AUTO 23009KT 10SM CLR 27/22 A2999 RMK AO2 SLP151 T02670217

More Conditions Fewer Conditions

Pressure 29.98 in
Visibility 10.0 miles
Clouds Clear
Heat Index 84 °F
Dew Point 71 °F
Humidity 74%
Rainfall 0.00 in
Snow Depth Not available.
UV 0 out of 12
Pollen 3.70 out of 12
Air Quality Not available.
Flu Activity Sporadic
METAR KMDH 130752Z AUTO 23009KT 10SM CLR 27/22 A2999 RMK AO2 SLP151 T02670217

More Conditions Fewer Conditions

10-Day Weather Forecast

Almanac

Astronomy

Jul. 13, 2014 Rise Set
Actual Time 5:48 AM CDT 8:19 PM CDT
Civil Twilight 5:17 AM CDT 8:49 PM CDT
Nautical Twilight 4:40 AM CDT 9:27 PM CDT
Astronomical Twilight 3:58 AM CDT 10:08 PM CDT
Moon 9:11 PM CDT 7:15 AM CDT
Length of Visible Light 15h 31m
Length of Day
14h 31m
Tomorrow will be 1m 8s shorter.
Full, 99% of the Moon is Illuminated
Today
Full
Jul 18
Last Quarter
Jul 26
New
Aug 3
First Quarter
Aug 10
Full

Today's Extremes

State Highs State Lows

Community

WunderPhotos

Upload Photos

1,733,143 photos uploaded!

Nearby

Snow Depth

Station Depth Elevation
No new snow has been reported.

Earthquake Activity

City Distance Mag. Time & Date
No recent earthquake activity has been reported nearby.
Minimum magnitude displayed is 2.5.

Coastal Water Temperatures

Place Temperature
No Stations Reporting

Nearby Weather Stations

Station Location Temp. Heat Index Dew Point Humidity Wind Precip. Elev Updated Type
Timber Creek, Cape Girardeau, MO 76.7 °F 78 °F 73 °F 88% North  at  1.0 mph 0.00 in / hr 440 ft 3:37 AM CDT Normal
WeatherTop, Cape Girardeau, MO 75.2 °F 74 °F 74 °F 95% SW  at  0.0 mph 0.00 in / hr 492 ft 3:33 AM CDT Normal
Dept. of Social Mediarology, Jackson, MO 76.1 °F 77 °F 72 °F 86% SW  at  1.7 mph - / hr 522 ft 3:40 AM CDT Normal
Jackson, MO - Goose Creek at Old Cape Rd, Jackson, MO 75.7 °F 75 °F 74 °F 93% WNW  at  1.7 mph - / hr 535 ft 3:32 AM CDT Normal
RAWS BEAN RIDGE IL, Thebes, IL 76 °F 76 °F 73 °F 91% North  at  0 mph 0.00 in / hr 700 ft 2:08 AM CDT MADIS
MesoWest WARE1 , Cypress, IL 80 °F 78 °F - - North  at  - 0.00 in / hr 351 ft 2:30 AM CDT MADIS
rural, Whitewater, MO 76.0 °F 76 °F 74 °F 92% South  at  1.0 mph 0.00 in / hr 410 ft 3:41 AM CDT Rapid Fire

Show More Stations Show Fewer Stations